Time;durP1;ratioP1;P1;durP2;ratioP2;P2;SDS_P1;SDS_P2;PMS_P1;PMS_P2;Temp;Humidity;BMP_temperature;BMP_pressure;BME280_temperature;BME280_humidity;BME280_pressure;Samples;Min_cycle;Max_cycle;Signal;HPM_P1;HPM_P2
2021/10/24 00:00:54;;;;;;;4.07;1.88;;;;;;;20.24;44.29;102624.06;4994473;28;20058;-61
2021/10/24 00:03:19;;;;;;;3.80;1.97;;;;;;;20.22;44.13;102623.28;4993707;28;20039;-60
2021/10/24 00:05:44;;;;;;;3.75;2.00;;;;;;;20.21;43.78;102617.16;4993721;28;20272;-59
2021/10/24 00:08:10;;;;;;;3.50;2.00;;;;;;;20.22;44.02;102628.56;4993876;28;20387;-60
2021/10/24 00:10:35;;;;;;;4.22;2.10;;;;;;;20.19;43.97;102619.03;4993943;28;20487;-61
2021/10/24 00:13:03;;;;;;;4.38;2.03;;;;;;;20.20;43.78;102622.53;4993318;28;20026;-60
2021/10/24 00:15:29;;;;;;;3.47;1.88;;;;;;;20.17;43.94;102620.94;4994091;28;20022;-60
2021/10/24 00:17:54;;;;;;;8.10;2.10;;;;;;;20.16;43.99;102619.22;4993297;28;20042;-60
2021/10/24 00:20:22;;;;;;;4.00;1.90;;;;;;;20.14;43.92;102617.63;4993622;28;20022;-60
2021/10/24 00:22:47;;;;;;;3.78;1.95;;;;;;;20.12;43.90;102615.06;4993806;28;20276;-59
2021/10/24 00:25:13;;;;;;;4.10;2.10;;;;;;;20.09;43.85;102616.13;4992767;28;20165;-60
2021/10/24 00:27:38;;;;;;;3.88;1.70;;;;;;;20.10;43.68;102616.97;4994155;28;20022;-61
2021/10/24 00:30:09;;;;;;;4.25;2.00;;;;;;;20.08;43.85;102613.56;4993540;28;20022;-60
2021/10/24 00:32:35;;;;;;;4.05;2.05;;;;;;;20.08;44.13;102614.41;4993117;28;20097;-60
2021/10/24 00:35:00;;;;;;;3.95;1.83;;;;;;;20.08;43.79;102618.88;4993430;28;20080;-60
2021/10/24 00:37:28;;;;;;;4.15;1.90;;;;;;;20.06;43.78;102615.44;4993594;28;20452;-60
2021/10/24 00:39:53;;;;;;;4.18;2.08;;;;;;;20.08;43.69;102616.22;4993056;28;20058;-60
2021/10/24 00:42:22;;;;;;;3.63;2.00;;;;;;;20.06;43.58;102615.44;4993543;28;20449;-60
2021/10/24 00:44:47;;;;;;;3.75;1.92;;;;;;;20.03;43.64;102613.00;4993137;28;20283;-60
2021/10/24 00:47:13;;;;;;;5.50;2.63;;;;;;;20.03;43.79;102619.16;4992467;28;20490;-60
2021/10/24 00:49:51;;;;;;;4.00;2.05;;;;;;;20.02;43.57;102614.78;4993459;28;20030;-60
2021/10/24 00:52:17;;;;;;;4.00;1.88;;;;;;;20.00;43.47;102603.44;4992866;28;20327;-60
2021/10/24 00:54:43;;;;;;;4.20;1.80;;;;;;;20.01;43.53;102609.59;4992825;28;20054;-60
2021/10/24 00:57:09;;;;;;;4.15;2.20;;;;;;;19.97;43.42;102601.00;4993186;28;20363;-61
2021/10/24 00:59:37;;;;;;;3.50;1.90;;;;;;;19.97;43.49;102601.00;4993225;28;20081;-61
2021/10/24 01:02:02;;;;;;;3.83;1.90;;;;;;;19.97;43.63;102605.44;4992565;28;20045;-60
2021/10/24 01:04:34;;;;;;;4.25;2.00;;;;;;;19.96;43.44;102601.09;4993156;28;20105;-61
2021/10/24 01:07:17;;;;;;;3.90;1.80;;;;;;;19.94;43.72;102606.47;4992418;28;20030;-60
2021/10/24 01:09:45;;;;;;;4.53;2.03;;;;;;;19.91;43.46;102596.91;4993288;28;20398;-59
2021/10/24 01:12:10;;;;;;;4.53;1.98;;;;;;;19.89;43.64;102598.81;4992702;28;20537;-60
2021/10/24 01:14:35;;;;;;;4.35;1.92;;;;;;;19.89;43.55;102601.47;4992306;28;20105;-60
2021/10/24 01:17:01;;;;;;;4.43;2.22;;;;;;;19.90;43.68;102591.72;4992649;28;20493;-60
2021/10/24 01:19:26;;;;;;;4.60;2.13;;;;;;;19.90;43.61;102591.72;4992961;28;20039;-60
2021/10/24 01:21:51;;;;;;;6.28;2.10;;;;;;;19.88;43.46;102586.53;4992155;28;20267;-60
2021/10/24 01:24:17;;;;;;;4.18;1.90;;;;;;;19.88;43.41;102591.81;4992517;28;20049;-60
2021/10/24 01:26:45;;;;;;;3.85;2.00;;;;;;;19.86;43.25;102588.41;4993136;28;20112;-60
2021/10/24 01:29:11;;;;;;;4.13;2.10;;;;;;;19.84;43.58;102581.53;4991826;28;20051;-60
2021/10/24 01:31:38;;;;;;;5.22;2.42;;;;;;;19.84;43.37;102581.53;4992838;28;20109;-60
2021/10/24 01:34:04;;;;;;;4.00;1.90;;;;;;;19.82;43.13;102583.41;4992711;28;20030;-59
2021/10/24 01:36:30;;;;;;;4.95;2.35;;;;;;;19.81;43.38;102576.44;4992347;28;20101;-60
2021/10/24 01:38:59;;;;;;;3.88;1.88;;;;;;;19.79;43.43;102584.47;4992515;28;20517;-60
2021/10/24 01:41:27;;;;;;;3.58;2.10;;;;;;;19.78;43.17;102576.63;4992563;28;20023;-60
2021/10/24 01:43:52;;;;;;;4.38;2.30;;;;;;;19.78;43.33;102571.31;4992199;28;20054;-61
2021/10/24 01:46:19;;;;;;;3.70;2.00;;;;;;;19.75;43.30;102570.50;4992359;28;20077;-61
2021/10/24 01:48:45;;;;;;;3.88;2.10;;;;;;;19.74;43.22;102568.84;4992590;28;20275;-60
2021/10/24 01:51:11;;;;;;;3.70;1.95;;;;;;;19.74;42.95;102563.53;4991908;28;20455;-60
2021/10/24 01:53:41;;;;;;;4.97;2.20;;;;;;;19.74;43.09;102560.03;4992493;28;20414;-61
2021/10/24 01:56:10;;;;;;;3.50;1.80;;;;;;;19.73;43.31;102556.53;4993480;28;20060;-60
2021/10/24 01:58:36;;;;;;;4.53;2.17;;;;;;;19.72;43.36;102554.00;4996054;28;20092;-60
2021/10/24 02:01:04;;;;;;;4.28;2.10;;;;;;;19.71;43.41;102547.00;4996397;28;20022;-60
2021/10/24 02:03:29;;;;;;;4.28;1.98;;;;;;;19.70;43.38;102551.44;4995993;28;20026;-59
2021/10/24 02:05:54;;;;;;;4.40;2.20;;;;;;;19.68;43.42;102555.97;4996612;28;20485;-59
2021/10/24 02:08:20;;;;;;;4.43;2.50;;;;;;;19.67;42.98;102551.63;4995701;28;20061;-59
2021/10/24 02:10:46;;;;;;;4.72;2.28;;;;;;;19.66;43.22;102543.78;4995635;28;20054;-60
2021/10/24 02:13:12;;;;;;;5.10;2.20;;;;;;;19.65;42.99;102550.88;4995909;28;20128;-60
2021/10/24 02:15:38;;;;;;;4.35;2.30;;;;;;;19.64;43.14;102545.69;4996115;28;20034;-60
2021/10/24 02:18:05;;;;;;;4.32;2.03;;;;;;;19.63;43.15;102542.19;4995275;28;20023;-60
2021/10/24 02:20:42;;;;;;;4.00;2.03;;;;;;;19.63;43.04;102536.91;4996161;28;20479;-61
2021/10/24 02:23:08;;;;;;;4.40;2.20;;;;;;;19.62;43.03;102532.53;4995877;28;20026;-60
2021/10/24 02:25:34;;;;;;;4.88;2.58;;;;;;;19.62;43.09;102529.06;4995295;28;20490;-61
2021/10/24 02:28:00;;;;;;;4.53;2.22;;;;;;;19.61;43.09;102528.19;4995619;28;20125;-60
2021/10/24 02:30:26;;;;;;;3.95;2.08;;;;;;;19.60;43.15;102529.16;4995957;28;20053;-60
2021/10/24 02:32:58;;;;;;;3.35;1.98;;;;;;;19.60;42.96;102525.63;4995458;28;20466;-61
2021/10/24 02:35:25;;;;;;;4.85;2.20;;;;;;;19.57;43.12;102519.59;4996035;28;20034;-61
2021/10/24 02:37:52;;;;;;;3.92;2.17;;;;;;;19.57;42.88;102522.25;4995759;28;20030;-61
2021/10/24 02:40:18;;;;;;;5.30;2.40;;;;;;;19.56;43.17;102517.06;4994246;28;20382;-60
2021/10/24 02:42:44;;;;;;;4.22;2.15;;;;;;;19.55;43.05;102517.97;4996094;28;20030;-61
2021/10/24 02:45:13;;;;;;;4.45;1.98;;;;;;;19.53;43.06;102514.59;4995324;28;20022;-61
2021/10/24 02:47:39;;;;;;;4.60;2.30;;;;;;;19.53;42.98;102509.31;4995313;28;20023;-61
2021/10/24 02:50:06;;;;;;;3.70;2.20;;;;;;;19.52;42.81;102511.09;4995223;28;20105;-61
2021/10/24 02:52:51;;;;;;;4.10;2.22;;;;;;;19.50;42.94;102510.34;4994822;28;20035;-60
2021/10/24 02:55:16;;;;;;;4.57;2.05;;;;;;;19.50;43.09;102512.13;4991099;28;20062;-60
2021/10/24 02:57:42;;;;;;;3.67;1.98;;;;;;;19.48;42.97;102512.22;4995760;28;20028;-59
2021/10/24 03:00:08;;;;;;;4.07;2.10;;;;;;;19.48;42.76;102503.44;4994545;28;20045;-60
2021/10/24 03:02:36;;;;;;;5.38;2.25;;;;;;;19.46;42.67;102500.91;4995614;28;20077;-59
2021/10/24 03:05:02;;;;;;;4.85;2.03;;;;;;;19.46;42.96;102500.06;4995286;28;20026;-60
2021/10/24 03:07:27;;;;;;;5.47;2.83;;;;;;;19.45;43.06;102501.84;4994281;28;20030;-60
2021/10/24 03:09:52;;;;;;;4.30;2.20;;;;;;;19.45;43.03;102506.28;4995505;28;20030;-60
2021/10/24 03:12:17;;;;;;;3.42;1.90;;;;;;;19.45;43.03;102503.63;4994947;28;20037;-60
2021/10/24 03:14:43;;;;;;;4.60;2.37;;;;;;;19.44;43.14;102488.69;4994449;28;20036;-60
2021/10/24 03:17:09;;;;;;;4.43;2.45;;;;;;;19.43;42.77;102489.66;4994940;28;20272;-59
2021/10/24 03:19:34;;;;;;;3.97;2.20;;;;;;;19.42;42.78;102488.78;4994938;28;20475;-59
2021/10/24 03:22:00;;;;;;;4.77;2.17;;;;;;;19.41;42.88;102489.75;4994166;28;20087;-60
2021/10/24 03:24:26;;;;;;;3.95;2.08;;;;;;;19.39;43.01;102487.22;4995340;28;20330;-61
2021/10/24 03:26:51;;;;;;;4.55;2.33;;;;;;;19.38;42.61;102484.66;4995019;28;20030;-61
2021/10/24 03:29:16;;;;;;;4.13;2.30;;;;;;;19.37;42.78;102486.44;4994263;28;20019;-60
2021/10/24 03:31:42;;;;;;;3.78;2.00;;;;;;;19.38;42.75;102490.78;4994474;28;20349;-60
2021/10/24 03:34:07;;;;;;;4.27;2.10;;;;;;;19.37;42.80;102486.44;4994424;28;20485;-61
2021/10/24 03:36:32;;;;;;;3.78;2.03;;;;;;;19.36;42.77;102481.25;4994238;28;20343;-60
2021/10/24 03:38:57;;;;;;;4.35;2.30;;;;;;;19.36;42.69;102486.56;4994341;28;20375;-60
2021/10/24 03:41:23;;;;;;;3.97;2.20;;;;;;;19.35;42.85;102482.19;4994467;28;20110;-60
2021/10/24 03:43:48;;;;;;;3.87;2.20;;;;;;;19.33;42.94;102481.44;4994250;28;20283;-61
2021/10/24 03:46:13;;;;;;;4.23;2.33;;;;;;;19.34;43.02;102485.78;4994380;28;20756;-61
2021/10/24 03:48:38;;;;;;;4.47;2.10;;;;;;;19.37;42.79;102485.59;4994377;28;20342;-60
2021/10/24 03:51:03;;;;;;;3.38;1.77;;;;;;;19.41;42.88;102479.19;4993763;28;20046;-60
2021/10/24 03:53:29;;;;;;;3.93;2.10;;;;;;;19.46;42.58;102476.25;4994526;28;20113;-60
2021/10/24 03:55:54;;;;;;;4.75;2.15;;;;;;;19.50;42.54;102478.63;4993708;28;20394;-59
2021/10/24 03:58:19;;;;;;;4.90;2.10;;;;;;;19.55;42.28;102488.91;4994086;28;20030;-59
2021/10/24 04:00:44;;;;;;;3.87;1.97;;;;;;;19.58;41.82;102483.41;4994398;28;20300;-60
2021/10/24 04:03:12;;;;;;;4.13;2.10;;;;;;;19.60;42.15;102484.19;4993409;28;20311;-60
2021/10/24 04:05:38;;;;;;;3.97;2.20;;;;;;;19.62;42.06;102487.59;4994288;28;20798;-60
2021/10/24 04:08:04;;;;;;;4.60;2.40;;;;;;;19.62;41.73;102486.75;4993870;28;20121;-60
2021/10/24 04:10:29;;;;;;;4.78;2.28;;;;;;;19.64;41.89;102483.03;4993726;28;20022;-60
2021/10/24 04:12:55;;;;;;;4.30;2.20;;;;;;;19.64;41.76;102488.34;4994467;28;20022;-60
2021/10/24 04:15:22;;;;;;;4.18;2.33;;;;;;;19.63;41.65;102481.38;4994173;28;20129;-60
2021/10/24 04:17:48;;;;;;;4.45;2.17;;;;;;;19.64;41.67;102484.84;4993094;28;20025;-60
2021/10/24 04:20:16;;;;;;;3.70;2.00;;;;;;;19.65;41.63;102487.41;4993419;28;20117;-60
2021/10/24 04:22:42;;;;;;;3.65;1.73;;;;;;;19.65;41.64;102476.81;4993623;28;20049;-61
2021/10/24 04:25:09;;;;;;;4.40;2.00;;;;;;;19.65;41.54;102484.75;4992748;28;20043;-60
2021/10/24 04:27:35;;;;;;;4.13;2.00;;;;;;;19.67;41.53;102482.00;4993936;28;20076;-60
2021/10/24 04:30:00;;;;;;;3.80;1.80;;;;;;;19.66;41.75;102482.94;4993300;28;20053;-60
2021/10/24 04:32:27;;;;;;;3.85;1.98;;;;;;;19.65;41.75;102471.53;4993251;28;20524;-61
2021/10/24 04:34:56;;;;;;;3.75;1.88;;;;;;;19.65;41.28;102470.69;4993407;28;20073;-60
2021/10/24 04:37:27;;;;;;;4.03;1.90;;;;;;;19.63;41.50;102468.13;4993317;28;20467;-61
2021/10/24 04:39:52;;;;;;;5.32;2.22;;;;;;;19.65;41.36;102465.41;4993209;28;20026;-61
2021/10/24 04:42:17;;;;;;;3.65;2.00;;;;;;;19.63;41.42;102465.50;4993366;28;20026;-60
2021/10/24 04:44:43;;;;;;;3.15;1.77;;;;;;;19.63;41.57;102456.69;4993444;28;20034;-60
2021/10/24 04:47:09;;;;;;;4.28;1.95;;;;;;;19.65;41.58;102465.41;4992343;28;20069;-60
2021/10/24 04:49:34;;;;;;;3.72;2.05;;;;;;;19.67;41.41;102460.84;4993344;28;20426;-60
2021/10/24 04:52:03;;;;;;;3.95;1.92;;;;;;;19.68;41.20;102460.75;4992973;28;20018;-60
2021/10/24 04:54:28;;;;;;;3.40;2.00;;;;;;;19.73;41.27;102468.41;4993038;28;20474;-60
2021/10/24 04:56:55;;;;;;;3.50;1.80;;;;;;;19.74;41.20;102460.38;4993463;28;20027;-60
2021/10/24 04:59:21;;;;;;;3.65;1.90;;;;;;;19.74;41.02;102452.44;4992221;28;20554;-61
2021/10/24 05:01:47;;;;;;;3.70;1.90;;;;;;;19.74;40.73;102456.88;4993222;28;20114;-60
2021/10/24 05:04:12;;;;;;;4.35;2.10;;;;;;;19.74;40.80;102451.56;4992774;28;20117;-60
2021/10/24 05:06:38;;;;;;;4.03;2.15;;;;;;;19.74;40.80;102456.88;4992592;28;20114;-60
2021/10/24 05:09:04;;;;;;;3.53;1.85;;;;;;;19.72;41.00;102456.97;4992722;28;20042;-61
2021/10/24 05:11:30;;;;;;;3.70;1.70;;;;;;;19.71;40.84;102444.69;4993453;28;20050;-61
2021/10/24 05:13:56;;;;;;;3.60;1.98;;;;;;;19.71;40.84;102450.00;4992092;28;20435;-61
2021/10/24 05:16:21;;;;;;;3.63;1.70;;;;;;;19.70;40.94;102450.94;4992829;28;20114;-61
2021/10/24 05:18:46;;;;;;;4.07;2.20;;;;;;;19.69;40.87;102432.50;4992779;28;20026;-60
2021/10/24 05:21:12;;;;;;;4.38;1.80;;;;;;;19.69;40.74;102443.09;4992253;28;20014;-60
2021/10/24 05:23:37;;;;;;;4.22;1.73;;;;;;;19.69;40.89;102432.50;4993076;28;20061;-60
2021/10/24 05:26:04;;;;;;;4.03;2.03;;;;;;;19.72;40.84;102429.66;4992488;28;20058;-59
2021/10/24 05:28:30;;;;;;;3.92;1.80;;;;;;;19.78;41.05;102423.19;4992403;28;20069;-60
2021/10/24 05:30:56;;;;;;;3.45;1.75;;;;;;;19.84;41.11;102421.00;4992636;28;20022;-61
2021/10/24 05:33:21;;;;;;;4.05;1.80;;;;;;;19.92;41.15;102421.34;4992614;28;20117;-61
2021/10/24 05:35:47;;;;;;;4.07;1.80;;;;;;;20.00;41.00;102420.03;4992321;28;20035;-60
2021/10/24 05:38:12;;;;;;;3.72;2.20;;;;;;;20.06;41.32;102423.13;4996779;28;20046;-60
2021/10/24 05:40:37;;;;;;;3.80;1.83;;;;;;;20.14;41.55;102425.25;4992500;28;20023;-60
2021/10/24 05:43:03;;;;;;;3.70;1.73;;;;;;;20.23;42.00;102414.06;4991941;28;20027;-61
2021/10/24 05:45:28;;;;;;;3.55;1.60;;;;;;;20.30;42.21;102409.22;4992704;28;20359;-61
2021/10/24 05:47:56;;;;;;;3.28;1.60;;;;;;;20.36;42.07;102405.31;4992470;28;20030;-60
2021/10/24 05:50:22;;;;;;;3.65;1.58;;;;;;;20.38;42.10;102412.22;4992220;28;20044;-60
2021/10/24 05:52:50;;;;;;;3.10;1.50;;;;;;;20.44;42.23;102408.28;4992612;28;20038;-61
2021/10/24 05:55:15;;;;;;;2.80;1.48;;;;;;;20.50;42.20;102410.53;4991972;28;20414;-60
2021/10/24 05:57:41;;;;;;;3.22;1.48;;;;;;;20.55;42.27;102403.13;4992222;28;20040;-60
2021/10/24 06:00:06;;;;;;;2.92;1.48;;;;;;;20.59;42.28;102401.97;4992193;28;20030;-60
2021/10/24 06:02:35;;;;;;;3.65;1.60;;;;;;;20.63;42.11;102403.47;4991973;28;20485;-60
2021/10/24 06:05:00;;;;;;;3.13;1.50;;;;;;;20.67;42.17;102398.00;4992407;28;20029;-60
2021/10/24 06:07:26;;;;;;;3.53;1.55;;;;;;;20.69;42.23;102404.03;4992669;28;20042;-60
2021/10/24 06:10:00;;;;;;;3.45;1.40;;;;;;;20.69;42.07;102402.22;4991843;28;20110;-60
2021/10/24 06:15:00;;;;;;;2.47;1.30;;;;;;;20.69;41.83;102393.44;4991752;28;20059;-59
2021/10/24 06:17:26;;;;;;;3.17;1.45;;;;;;;20.65;41.89;102393.66;4992008;28;20216;-60
2021/10/24 06:19:52;;;;;;;2.83;1.48;;;;;;;20.66;41.84;102391.84;4992533;28;20477;-60
2021/10/24 06:22:17;;;;;;;3.75;1.27;;;;;;;20.70;42.13;102389.84;4991927;28;20038;-60
2021/10/24 06:24:42;;;;;;;2.60;1.30;;;;;;;20.74;41.98;102393.97;4991876;28;20034;-60
2021/10/24 06:27:07;;;;;;;3.13;1.20;;;;;;;20.79;41.94;102405.09;4992126;28;20274;-60
2021/10/24 06:29:33;;;;;;;2.53;1.33;;;;;;;20.81;41.76;102395.25;4992065;28;20018;-60
2021/10/24 06:31:58;;;;;;;3.10;1.50;;;;;;;20.83;41.86;102394.19;4991616;28;20351;-61
2021/10/24 06:34:23;;;;;;;3.00;1.50;;;;;;;20.83;41.88;102396.84;4992439;28;20109;-61
2021/10/24 06:36:49;;;;;;;2.50;1.20;;;;;;;20.86;41.79;102392.31;4992043;28;20350;-60
2021/10/24 06:39:14;;;;;;;3.42;1.60;;;;;;;20.88;41.67;102396.53;4991208;28;20272;-60
2021/10/24 06:41:39;;;;;;;2.83;1.30;;;;;;;20.91;41.59;102392.81;4992706;28;20494;-60
2021/10/24 06:44:05;;;;;;;2.50;1.20;;;;;;;20.93;41.55;102388.25;4995201;28;20037;-61
2021/10/24 06:46:33;;;;;;;3.47;1.95;;;;;;;20.89;39.19;102384.97;4995381;28;20295;-60
2021/10/24 06:48:58;;;;;;;3.47;1.67;;;;;;;20.86;40.00;102385.19;4995328;28;20026;-61
2021/10/24 06:51:24;;;;;;;2.20;1.27;;;;;;;20.83;40.59;102383.59;4995479;28;20033;-60
2021/10/24 06:53:49;;;;;;;3.33;1.60;;;;;;;20.84;40.36;102387.09;4995317;28;20322;-60
2021/10/24 06:56:14;;;;;;;4.20;1.40;;;;;;;20.84;40.78;102379.16;4995109;28;20320;-60
2021/10/24 06:58:39;;;;;;;3.90;1.45;;;;;;;20.86;40.26;102371.94;4994690;28;20477;-61
2021/10/24 07:01:05;;;;;;;3.00;1.47;;;;;;;20.84;40.14;102371.22;4995466;28;20044;-60
2021/10/24 07:03:30;;;;;;;3.67;1.40;;;;;;;20.84;40.20;102382.66;4995694;28;20307;-60
2021/10/24 07:05:55;;;;;;;3.20;1.63;;;;;;;20.82;40.21;102376.63;4994954;28;20463;-60
2021/10/24 07:08:20;;;;;;;3.23;1.50;;;;;;;20.86;40.47;102379.88;4995350;28;20490;-60
2021/10/24 07:10:45;;;;;;;3.17;1.40;;;;;;;20.87;40.43;102376.31;4995621;28;20486;-60
2021/10/24 07:13:11;;;;;;;2.93;1.40;;;;;;;20.89;40.47;102374.38;4994332;28;20077;-61
2021/10/24 07:15:36;;;;;;;2.60;1.20;;;;;;;20.90;40.43;102369.91;4995330;28;20034;-61
2021/10/24 07:18:04;;;;;;;3.40;1.77;;;;;;;20.92;40.37;102371.53;4994726;28;20288;-61
2021/10/24 07:20:30;;;;;;;3.13;1.38;;;;;;;20.96;40.26;102366.84;4994343;28;20276;-60
2021/10/24 07:22:55;;;;;;;2.55;1.35;;;;;;;20.97;40.20;102368.56;4995212;28;20056;-62
2021/10/24 07:25:22;;;;;;;3.55;1.67;;;;;;;20.96;40.08;102369.50;4995459;28;20041;-61
2021/10/24 07:27:50;;;;;;;4.40;1.50;;;;;;;20.93;40.43;102367.06;4995793;28;20069;-61
2021/10/24 07:30:19;;;;;;;3.80;1.50;;;;;;;20.90;40.15;102359.31;4995580;28;20030;-62
2021/10/24 07:32:45;;;;;;;4.03;1.58;;;;;;;20.95;40.14;102351.88;4995151;28;20049;-61
2021/10/24 07:35:10;;;;;;;4.47;1.60;;;;;;;21.04;40.28;102358.38;4994573;28;20463;-62
2021/10/24 07:37:37;;;;;;;3.60;1.70;;;;;;;21.13;39.93;102358.56;4994795;28;20045;-63
2021/10/24 07:40:08;;;;;;;3.20;1.20;;;;;;;21.22;39.83;102349.13;4994839;28;20022;-64
2021/10/24 07:42:33;;;;;;;2.55;1.30;;;;;;;21.29;39.66;102346.88;4994507;28;20053;-63
2021/10/24 07:44:58;;;;;;;2.73;1.30;;;;;;;21.33;39.50;102346.56;4995055;28;20124;-62
2021/10/24 07:47:33;;;;;;;3.53;1.57;;;;;;;21.38;39.55;102348.88;4995042;28;20300;-63
2021/10/24 07:49:58;;;;;;;;;;;;;;;21.43;39.36;102345.88;4994492;28;20362;-61
2021/10/24 07:52:24;;;;;;;5.15;1.75;;;;;;;21.47;39.12;102345.53;4995251;28;19944;-61
2021/10/24 07:54:49;;;;;;;3.85;1.50;;;;;;;21.50;39.39;102344.53;4993971;28;20054;-61
2021/10/24 07:57:14;;;;;;;3.70;1.45;;;;;;;21.53;39.28;102346.94;4994658;28;20399;-62
2021/10/24 07:59:39;;;;;;;3.23;1.43;;;;;;;21.54;39.12;102341.53;4995495;28;20030;-62
2021/10/24 08:02:13;;;;;;;4.03;1.40;;;;;;;21.56;39.23;102342.25;4993972;28;20292;-61
2021/10/24 08:04:38;;;;;;;3.55;1.48;;;;;;;21.59;39.85;102341.22;4994808;28;20026;-63
2021/10/24 08:07:05;;;;;;;5.50;1.73;;;;;;;21.63;40.31;102339.16;4994050;28;20033;-64
2021/10/24 08:09:31;;;;;;;4.70;1.88;;;;;;;21.66;40.77;102338.94;4993930;28;20026;-62
2021/10/24 08:12:00;;;;;;;6.90;1.77;;;;;;;21.69;40.69;102339.56;4994004;28;20133;-65
2021/10/24 08:14:26;;;;;;;5.43;1.70;;;;;;;21.73;40.54;102330.44;4994257;28;20026;-62
2021/10/24 08:16:52;;;;;;;5.82;1.85;;;;;;;21.76;40.51;102332.00;4993959;28;20034;-64
2021/10/24 08:19:17;;;;;;;4.47;1.85;;;;;;;21.70;40.70;102324.50;4994045;28;20363;-61
2021/10/24 08:21:43;;;;;;;6.80;2.03;;;;;;;21.66;41.06;102329.16;4993876;28;20019;-62
2021/10/24 08:24:08;;;;;;;5.10;1.75;;;;;;;21.64;41.27;102328.44;4993670;28;20426;-61
2021/10/24 08:26:34;;;;;;;5.25;1.88;;;;;;;21.63;41.15;102331.22;4994217;28;20029;-61
2021/10/24 08:28:59;;;;;;;4.72;1.73;;;;;;;21.61;41.33;102327.81;4993758;28;20038;-63
2021/10/24 08:31:26;;;;;;;5.30;1.90;;;;;;;21.62;41.25;102326.84;4994486;28;20057;-61
2021/10/24 08:33:58;;;;;;;5.60;2.05;;;;;;;21.58;41.18;102322.75;4995427;28;20030;-61
2021/10/24 08:36:25;;;;;;;10.95;2.38;;;;;;;21.54;41.19;102314.19;4993733;28;20113;-61
2021/10/24 08:38:51;;;;;;;5.28;2.10;;;;;;;21.48;40.98;102304.84;4993533;28;20501;-62
2021/10/24 08:41:27;;;;;;;5.20;2.10;;;;;;;21.51;41.07;102296.66;4995222;28;20034;-61
2021/10/24 08:43:54;;;;;;;4.55;1.70;;;;;;;21.52;40.85;102290.41;4995113;28;20031;-61
2021/10/24 08:46:21;;;;;;;4.72;1.60;;;;;;;21.55;40.98;102299.94;4993491;28;20478;-62
2021/10/24 08:48:49;;;;;;;3.88;1.65;;;;;;;21.53;40.96;102294.75;4993710;28;20029;-64
2021/10/24 08:51:16;;;;;;;6.68;2.05;;;;;;;21.47;40.89;102297.81;4992600;28;20105;-64
2021/10/24 08:53:45;;;;;;;4.65;1.80;;;;;;;21.43;40.86;102295.47;4993573;28;20050;-64
2021/10/24 08:56:18;;;;;;;5.90;2.22;;;;;;;21.38;41.18;102294.03;4992754;28;20506;-60
2021/10/24 08:58:45;;;;;;;3.85;1.58;;;;;;;21.40;41.04;102290.44;4992994;28;20438;-61
2021/10/24 09:01:11;;;;;;;4.70;1.95;;;;;;;21.36;41.07;102290.66;4993407;28;20030;-61
2021/10/24 09:03:37;;;;;;;3.63;1.67;;;;;;;21.37;41.27;102291.50;4993638;28;20382;-61
2021/10/24 09:06:05;;;;;;;6.15;1.98;;;;;;;21.34;41.35;102287.25;4992423;28;20360;-61
2021/10/24 09:08:31;;;;;;;4.75;1.70;;;;;;;21.33;41.30;102284.69;4993996;28;20089;-62
2021/10/24 09:11:02;;;;;;;4.82;2.05;;;;;;;21.33;41.26;102282.03;4993533;28;20391;-61
2021/10/24 09:13:34;;;;;;;3.70;1.55;;;;;;;21.35;41.16;102269.53;4993037;28;20053;-60
2021/10/24 09:16:12;;;;;;;11.15;2.28;;;;;;;21.40;41.29;102278.00;4993036;28;20037;-62
2021/10/24 09:18:39;;;;;;;4.05;1.98;;;;;;;21.43;41.04;102271.63;4995483;28;20157;-61
2021/10/24 09:21:17;;;;;;;4.63;1.70;;;;;;;21.45;40.98;102278.50;4995168;28;20084;-62
2021/10/24 09:23:43;;;;;;;3.58;1.52;;;;;;;21.46;41.19;102266.94;4994723;28;20042;-60
2021/10/24 09:26:31;;;;;;;3.30;1.42;;;;;;;21.45;41.00;102275.03;4994001;28;20030;-61
2021/10/24 09:29:03;;;;;;;3.60;1.63;;;;;;;21.44;41.23;102273.31;4994207;28;20402;-61
2021/10/24 09:31:33;;;;;;;4.38;1.52;;;;;;;21.43;41.18;102272.47;4994377;28;20026;-61
2021/10/24 09:34:16;;;;;;;3.80;1.50;;;;;;;21.43;41.25;102268.97;4992492;28;20435;-67
2021/10/24 09:36:56;;;;;;;4.05;1.80;;;;;;;21.46;41.15;102269.59;4994155;28;20035;-65
2021/10/24 09:39:27;;;;;;;3.17;1.30;;;;;;;21.51;40.88;102271.97;4995290;28;20053;-66
2021/10/24 09:42:25;;;;;;;3.70;1.55;;;;;;;21.54;41.01;102267.25;4993862;28;20022;-65
2021/10/24 09:45:12;;;;;;;3.85;2.00;;;;;;;21.60;40.83;102267.75;4995082;28;20038;-65
2021/10/24 09:47:42;;;;;;;4.63;1.50;;;;;;;21.65;40.77;102268.25;4995294;28;20037;-64
2021/10/24 09:50:29;;;;;;;4.00;1.42;;;;;;;21.67;40.58;102261.91;4995273;28;20041;-65
2021/10/24 09:53:27;;;;;;;4.40;1.60;;;;;;;21.69;40.72;102262.63;4993789;28;20046;-60
2021/10/24 09:55:53;;;;;;;4.03;1.63;;;;;;;21.73;40.61;102260.59;4994263;28;20061;-62
2021/10/24 09:58:19;;;;;;;3.47;1.45;;;;;;;21.76;40.44;102251.56;4994710;28;20035;-62
2021/10/24 10:00:45;;;;;;;4.40;1.50;;;;;;;21.77;40.28;102253.25;4994163;28;20073;-62
2021/10/24 10:03:10;;;;;;;4.80;1.70;;;;;;;21.76;40.48;102259.50;4992375;28;20054;-63
2021/10/24 10:05:39;;;;;;;3.95;1.50;;;;;;;21.72;39.79;102250.94;4992807;28;20019;-67
2021/10/24 10:08:09;;;;;;;3.25;1.40;;;;;;;21.68;39.50;102249.47;4992376;28;20026;-67
2021/10/24 10:10:52;;;;;;;5.93;1.80;;;;;;;21.59;40.22;102256.31;4992842;28;20129;-63
2021/10/24 10:13:24;;;;;;;3.95;1.50;;;;;;;21.59;40.54;102248.34;4992829;28;20038;-60
2021/10/24 10:15:50;;;;;;;3.67;1.80;;;;;;;21.62;40.79;102250.78;4992393;28;20040;-61
2021/10/24 10:18:17;;;;;;;3.83;1.40;;;;;;;21.68;40.72;102247.69;4995924;28;20133;-64
2021/10/24 10:20:50;;;;;;;5.00;1.40;;;;;;;21.74;40.62;102238.41;4996280;28;20393;-63
2021/10/24 10:23:35;;;;;;;3.63;1.45;;;;;;;21.77;40.35;102243.47;4996248;28;20026;-64
2021/10/24 10:26:40;;;;;;;2.88;1.40;;;;;;;21.77;40.50;102246.13;4999937;28;20485;-63
2021/10/24 10:29:11;;;;;;;3.25;1.50;;;;;;;21.76;40.33;102249.72;4998196;28;20022;-62
2021/10/24 10:32:11;;;;;;;2.92;1.20;;;;;;;21.72;40.66;102250.94;4996988;28;20386;-62
2021/10/24 10:35:10;;;;;;;3.13;1.27;;;;;;;21.68;40.73;102245.03;4996039;28;20034;-61
2021/10/24 10:38:05;;;;;;;4.05;1.42;;;;;;;21.61;40.68;102242.94;4991270;28;20106;-60
2021/10/24 10:40:38;;;;;;;2.60;1.00;;;;;;;21.60;41.08;102246.53;4996386;28;20050;-60
2021/10/24 10:43:05;;;;;;;3.15;1.08;;;;;;;21.60;41.28;102239.41;4995765;28;20097;-63
2021/10/24 10:45:33;;;;;;;4.65;1.58;;;;;;;21.59;40.90;102244.84;4995496;28;20037;-64
2021/10/24 10:48:21;;;;;;;4.18;1.20;;;;;;;21.55;40.99;102249.53;4994700;28;20045;-64
2021/10/24 10:50:48;;;;;;;3.20;1.25;;;;;;;21.51;41.27;102240.13;4995208;28;20037;-65
2021/10/24 10:53:35;;;;;;;2.63;1.10;;;;;;;21.47;41.30;102244.75;4995653;28;20022;-64
2021/10/24 10:56:01;;;;;;;2.60;1.10;;;;;;;21.47;41.55;102235.97;5009949;28;20089;-63
2021/10/24 10:58:33;;;;;;;2.90;1.25;;;;;;;21.48;40.89;102246.50;4995219;28;20050;-60
2021/10/24 11:00:59;;;;;;;4.32;1.50;;;;;;;21.56;40.72;102243.28;4995650;28;20038;-61
2021/10/24 11:03:44;;;;;;;5.75;1.67;;;;;;;21.61;40.98;102233.16;4995516;28;20022;-62
2021/10/24 11:06:11;;;;;;;3.55;1.27;;;;;;;21.65;40.99;102224.03;4995240;28;20026;-60
2021/10/24 11:09:00;;;;;;;3.08;1.25;;;;;;;21.68;40.68;102225.59;4995754;28;20029;-61
2021/10/24 11:11:44;;;;;;;4.05;1.73;;;;;;;21.67;40.77;102227.41;4995596;28;20045;-62
2021/10/24 11:14:15;;;;;;;3.93;1.20;;;;;;;21.66;40.91;102217.75;4995142;28;20046;-62
2021/10/24 11:16:45;;;;;;;4.35;1.25;;;;;;;21.67;40.75;102224.75;4995997;28;20066;-61
2021/10/24 11:19:26;;;;;;;3.33;1.30;;;;;;;21.68;40.79;102236.19;4994740;28;20448;-62
2021/10/24 11:21:56;;;;;;;3.88;1.42;;;;;;;21.67;40.56;102230.06;4995373;28;20418;-61
2021/10/24 11:24:36;;;;;;;2.85;1.20;;;;;;;21.69;40.49;102227.28;4994989;28;20026;-62
2021/10/24 11:27:03;;;;;;;3.10;1.05;;;;;;;21.68;40.56;102228.25;4994433;28;20180;-64
2021/10/24 11:29:32;;;;;;;2.35;1.00;;;;;;;21.63;40.88;102220.63;4995235;28;20034;-62
2021/10/24 11:32:30;;;;;;;3.65;1.02;;;;;;;21.58;40.76;102220.13;4994725;28;20022;-62